Atlanta Naval Air Station, Georgia
Current Conditions -  °F | °C
As of 12:58 PM on Tuesday 21 Oct 2014 (Local Time) from KMGE Reporting Station
Few Clouds Few Clouds  
Wind Chill: 71°   Ceiling: Unl
Heat Index: 71°   Visibility: 10mi
Dew Point: 55°   Wind: 13mph
Humidity: 57%   Direction: 280°W
Pressure: 30.02"   Gusts: NA
Location:  33.9252°N, 84.5422°W
Report Text: KMGE 211658Z 28011KT 10SM FEW030 22/13 A3002 RMK AO2A SLP162 T02160128 $
Loading
Personal Weather Stations






























Interactive Weather Map New forecast layout! Learn more

10-Day Weather Forecast

Advertisements
Track Severe Weather on mobile